Corning, Missouri
Current Conditions -  °F | °C
As of 12:53 PM on Thursday 30 Oct 2014 (Local Time) from KFNB Reporting Station
Clear Clear  
Wind Chill: 64°   Ceiling: Unl
Heat Index: 64°   Visibility: 10mi
Dew Point: 40°   Wind: 21mph
Humidity: 41%   Direction: 330°NNW
Pressure: 30.05"   Gusts: 29mph
Location:  40.1428°N, 95.3614°W
Report Text: KFNB 301753Z AUTO 33018G25KT 10SM CLR 18/04 A3005 RMK AO2 SLP174 60000 T01780044 10178 20050 50005
Loading
Personal Weather Stations






























Interactive Weather Map
Tropical Storm Tracking
New forecast layout! Learn more

10-Day Weather Forecast

Advertisements
Track Severe Weather on mobile